Time;durP1;ratioP1;P1;durP2;ratioP2;P2;SDS_P1;SDS_P2;PMS_P1;PMS_P2;Temp;Humidity;BMP_temperature;BMP_pressure;BME280_temperature;BME280_humidity;BME280_pressure;Samples;Min_cycle;Max_cycle;Signal;HPM_P1;HPM_P2
2021/04/27 00:02:09;;;;;;;6.43;3.40;;;;;;;;;;5075163;28;20439;-83
2021/04/27 00:04:35;;;;;;;4.37;3.60;;;;;;;;;;5075054;28;20494;-82
2021/04/27 00:07:02;;;;;;;4.57;3.33;;;;;;;;;;5075166;28;20447;-83
2021/04/27 00:09:29;;;;;;;5.57;3.80;;;;;;;;;;5061991;28;20439;-81
2021/04/27 00:11:56;;;;;;;4.30;3.30;;;;;;;;;;5061001;28;20435;-82
2021/04/27 00:14:24;;;;;;;4.33;3.70;;;;;;;;;;5072326;28;20464;-82
2021/04/27 00:16:51;;;;;;;5.33;4.07;;;;;;;;;;5072474;28;20463;-82
2021/04/27 00:19:18;;;;;;;4.87;3.03;;;;;;;;;;5072681;28;20521;-81
2021/04/27 00:21:45;;;;;;;6.00;3.53;;;;;;;;;;5073397;28;20471;-82
2021/04/27 00:24:12;;;;;;;4.07;2.97;;;;;;;;;;5074310;28;20483;-82
2021/04/27 00:26:39;;;;;;;5.57;3.40;;;;;;;;;;5074765;28;20787;-81
2021/04/27 00:29:06;;;;;;;5.27;3.23;;;;;;;;;;5074685;28;20454;-82
2021/04/27 00:31:34;;;;;;;7.60;4.00;;;;;;;;;;5044569;28;20445;-82
2021/04/27 00:34:02;;;;;;;4.53;3.27;;;;;;;;;;5055828;28;20461;-82
2021/04/27 00:36:29;;;;;;;5.20;3.37;;;;;;;;;;5051808;28;20527;-82
2021/04/27 00:38:58;;;;;;;4.30;3.20;;;;;;;;;;5051817;28;21145;-82
2021/04/27 00:41:25;;;;;;;4.30;3.20;;;;;;;;;;5052411;28;20527;-82
2021/04/27 00:43:52;;;;;;;6.77;3.20;;;;;;;;;;5062636;28;20502;-82
2021/04/27 00:46:18;;;;;;;4.20;3.40;;;;;;;;;;5074378;28;20447;-82
2021/04/27 00:48:46;;;;;;;7.33;3.20;;;;;;;;;;5074310;28;20444;-83
2021/04/27 00:51:13;;;;;;;3.53;3.00;;;;;;;;;;5074224;28;20442;-83
2021/04/27 00:53:40;;;;;;;4.57;3.40;;;;;;;;;;5062259;28;20440;-83
2021/04/27 00:56:08;;;;;;;4.83;3.30;;;;;;;;;;5056786;28;20763;-82
2021/04/27 00:58:34;;;;;;;4.07;2.73;;;;;;;;;;5050924;28;20482;-83
2021/04/27 01:01:01;;;;;;;3.20;2.90;;;;;;;;;;5051661;28;20440;-83
2021/04/27 01:03:28;;;;;;;4.20;3.10;;;;;;;;;;5051636;28;20487;-82
2021/04/27 01:05:56;;;;;;;2.93;2.63;;;;;;;;;;5060771;28;20249;-81
2021/04/27 01:08:26;;;;;;;4.53;3.22;;;;;;;;;;5073919;28;20443;-82
2021/04/27 01:10:57;;;;;;;5.83;3.87;;;;;;;;;;5073906;28;20283;-83
2021/04/27 01:13:27;;;;;;;4.55;3.25;;;;;;;;;;5073912;28;20447;-82
2021/04/27 01:15:56;;;;;;;3.85;2.80;;;;;;;;;;5061706;28;20197;-82
2021/04/27 01:18:23;;;;;;;3.57;2.70;;;;;;;;;;5059679;28;20206;-82
2021/04/27 01:20:50;;;;;;;3.60;3.30;;;;;;;;;;5070864;28;20448;-82
2021/04/27 01:23:37;;;;;;;5.47;3.40;;;;;;;;;;5071281;28;20584;-82
2021/04/27 01:26:05;;;;;;;4.47;2.93;;;;;;;;;;5071304;28;20809;-82
2021/04/27 01:28:34;;;;;;;4.90;3.00;;;;;;;;;;5072325;28;20939;-83
2021/04/27 01:31:01;;;;;;;3.88;2.80;;;;;;;;;;5073412;28;20446;-82
2021/04/27 01:33:29;;;;;;;7.30;3.50;;;;;;;;;;5073463;28;20298;-83
2021/04/27 01:35:57;;;;;;;3.75;2.83;;;;;;;;;;5055544;28;20200;-83
2021/04/27 01:38:24;;;;;;;4.15;2.72;;;;;;;;;;5059433;28;20207;-84
2021/04/27 01:40:52;;;;;;;4.20;2.90;;;;;;;;;;5042657;28;20290;-83
2021/04/27 01:43:19;;;;;;;3.00;2.70;;;;;;;;;;5070990;28;20281;-82
2021/04/27 01:45:48;;;;;;;4.32;3.00;;;;;;;;;;5070809;28;20223;-82
2021/04/27 01:48:15;;;;;;;4.82;3.00;;;;;;;;;;5071327;28;20193;-82
2021/04/27 01:50:43;;;;;;;3.50;2.75;;;;;;;;;;5072101;28;20673;-82
2021/04/27 01:53:10;;;;;;;4.20;3.10;;;;;;;;;;5055521;28;20327;-83
2021/04/27 01:55:37;;;;;;;4.93;3.03;;;;;;;;;;5073084;28;20270;-83
2021/04/27 01:58:03;;;;;;;4.53;2.90;;;;;;;;;;5073089;28;20204;-83
2021/04/27 02:00:30;;;;;;;3.78;2.72;;;;;;;;;;5059457;28;20660;-83
2021/04/27 02:02:58;;;;;;;3.90;2.70;;;;;;;;;;5060178;28;20216;-83
2021/04/27 02:05:25;;;;;;;3.60;2.70;;;;;;;;;;5071172;28;20220;-82
2021/04/27 02:07:52;;;;;;;5.25;2.90;;;;;;;;;;5070787;28;20198;-82
2021/04/27 02:10:19;;;;;;;2.88;2.63;;;;;;;;;;5070882;28;20665;-81
2021/04/27 02:12:47;;;;;;;4.22;3.72;;;;;;;;;;5071815;28;20257;-82
2021/04/27 02:15:15;;;;;;;7.07;3.35;;;;;;;;;;5055402;28;20218;-84
2021/04/27 02:17:46;;;;;;;3.38;2.65;;;;;;;;;;5073390;28;20205;-81
2021/04/27 02:20:14;;;;;;;6.22;3.60;;;;;;;;;;5073119;28;20198;-82
2021/04/27 02:22:42;;;;;;;4.43;2.90;;;;;;;;;;5059114;28;20219;-82
2021/04/27 02:25:11;;;;;;;7.22;3.47;;;;;;;;;;5053171;28;20215;-82
2021/04/27 02:27:38;;;;;;;5.03;2.95;;;;;;;;;;5049426;28;20254;-82
2021/04/27 02:30:06;;;;;;;4.78;3.10;;;;;;;;;;5042775;28;20203;-82
2021/04/27 02:32:33;;;;;;;6.10;3.50;;;;;;;;;;5050549;28;20215;-82
2021/04/27 02:35:00;;;;;;;7.45;3.83;;;;;;;;;;5062520;28;20248;-83
2021/04/27 02:37:29;;;;;;;3.47;2.90;;;;;;;;;;5058657;28;20210;-82
2021/04/27 02:39:56;;;;;;;4.15;2.55;;;;;;;;;;5059837;28;20198;-82
2021/04/27 02:42:23;;;;;;;4.65;3.47;;;;;;;;;;5070587;28;20217;-84
2021/04/27 02:44:51;;;;;;;5.32;3.55;;;;;;;;;;5070323;28;20221;-84
2021/04/27 02:47:18;;;;;;;3.45;2.60;;;;;;;;;;5070642;28;20205;-82
2021/04/27 02:49:44;;;;;;;4.45;2.90;;;;;;;;;;5075241;28;20205;-83
2021/04/27 02:52:12;;;;;;;3.35;3.05;;;;;;;;;;5076611;28;20205;-81
2021/04/27 02:54:40;;;;;;;3.65;3.00;;;;;;;;;;5076490;28;20574;-81
2021/04/27 02:57:06;;;;;;;4.10;2.80;;;;;;;;;;5076902;28;20285;-82
2021/04/27 02:59:33;;;;;;;5.18;2.78;;;;;;;;;;5063313;28;20655;-82
2021/04/27 03:02:00;;;;;;;3.97;3.10;;;;;;;;;;5062940;28;20215;-82
2021/04/27 03:04:27;;;;;;;2.60;2.40;;;;;;;;;;5073814;28;20229;-83
2021/04/27 03:06:54;;;;;;;4.95;3.05;;;;;;;;;;5073865;28;20205;-82
2021/04/27 03:09:21;;;;;;;4.25;3.08;;;;;;;;;;5074237;28;20195;-81
2021/04/27 03:11:49;;;;;;;4.78;3.17;;;;;;;;;;5075042;28;20264;-83
2021/04/27 03:14:16;;;;;;;3.22;2.72;;;;;;;;;;5076051;28;20554;-81
2021/04/27 03:16:43;;;;;;;3.80;2.75;;;;;;;;;;5076733;28;20197;-84
2021/04/27 03:19:09;;;;;;;4.07;3.33;;;;;;;;;;5076015;28;20532;-82
2021/04/27 03:21:36;;;;;;;3.28;2.78;;;;;;;;;;5063082;28;20229;-83
2021/04/27 03:24:03;;;;;;;4.97;2.97;;;;;;;;;;5062223;28;20223;-82
2021/04/27 03:26:30;;;;;;;10.50;3.45;;;;;;;;;;5073179;28;20552;-83
2021/04/27 03:28:58;;;;;;;4.43;3.08;;;;;;;;;;5073474;28;20198;-81
2021/04/27 03:31:25;;;;;;;4.00;2.80;;;;;;;;;;5073666;28;20199;-83
2021/04/27 03:33:52;;;;;;;3.33;3.03;;;;;;;;;;5074075;28;20225;-83
2021/04/27 03:36:19;;;;;;;5.28;3.47;;;;;;;;;;5076242;28;20208;-80
2021/04/27 03:38:45;;;;;;;4.45;3.20;;;;;;;;;;5075808;28;20665;-82
2021/04/27 03:41:12;;;;;;;4.32;2.97;;;;;;;;;;5075762;28;20200;-82
2021/04/27 03:43:39;;;;;;;5.25;3.40;;;;;;;;;;5063783;28;20233;-82
2021/04/27 03:46:07;;;;;;;4.32;3.42;;;;;;;;;;5061421;28;20182;-82
2021/04/27 03:48:34;;;;;;;3.08;2.78;;;;;;;;;;5072621;28;20706;-84
2021/04/27 03:51:01;;;;;;;3.42;2.50;;;;;;;;;;5072948;28;20659;-83
2021/04/27 03:53:28;;;;;;;5.93;3.22;;;;;;;;;;5073365;28;20206;-83
2021/04/27 03:55:55;;;;;;;3.55;2.88;;;;;;;;;;5073970;28;20208;-82
2021/04/27 03:58:22;;;;;;;7.05;3.00;;;;;;;;;;5074821;28;20674;-83
2021/04/27 04:00:48;;;;;;;4.43;3.25;;;;;;;;;;5075154;28;20208;-83
2021/04/27 04:03:16;;;;;;;3.40;2.78;;;;;;;;;;5075967;28;20225;-82
2021/04/27 04:05:43;;;;;;;7.22;3.05;;;;;;;;;;5064163;28;20267;-82
2021/04/27 04:08:10;;;;;;;7.00;3.38;;;;;;;;;;5058231;28;20199;-81
2021/04/27 04:10:37;;;;;;;4.03;2.75;;;;;;;;;;5051504;28;20198;-82
2021/04/27 04:13:03;;;;;;;5.53;3.42;;;;;;;;;;5052483;28;20660;-82
2021/04/27 04:15:30;;;;;;;4.88;3.47;;;;;;;;;;5053480;28;20215;-83
2021/04/27 04:17:57;;;;;;;3.67;2.97;;;;;;;;;;5061261;28;20773;-82
2021/04/27 04:20:26;;;;;;;3.53;2.95;;;;;;;;;;5075017;28;20255;-83
2021/04/27 04:22:53;;;;;;;6.28;2.88;;;;;;;;;;5074997;28;20214;-83
2021/04/27 04:25:20;;;;;;;3.15;2.85;;;;;;;;;;5056917;28;20229;-84
2021/04/27 04:27:47;;;;;;;4.65;2.63;;;;;;;;;;5064249;28;20205;-83
2021/04/27 04:30:15;;;;;;;6.03;2.97;;;;;;;;;;5042256;28;20251;-82
2021/04/27 04:32:42;;;;;;;8.20;3.55;;;;;;;;;;5053672;28;20198;-82
2021/04/27 04:35:10;;;;;;;9.02;3.00;;;;;;;;;;5054467;28;20221;-81
2021/04/27 04:37:38;;;;;;;3.65;2.85;;;;;;;;;;5072376;28;20251;-82
2021/04/27 04:40:05;;;;;;;5.18;3.15;;;;;;;;;;5072862;28;20201;-82
2021/04/27 04:42:32;;;;;;;5.22;3.20;;;;;;;;;;5074594;28;20197;-82
2021/04/27 04:44:59;;;;;;;3.30;2.90;;;;;;;;;;5074144;28;20235;-82
2021/04/27 04:47:26;;;;;;;3.35;3.05;;;;;;;;;;5074446;28;20194;-81
2021/04/27 04:49:53;;;;;;;4.30;3.20;;;;;;;;;;5064730;28;20278;-82
2021/04/27 04:52:22;;;;;;;3.35;2.72;;;;;;;;;;5058783;28;20256;-82
2021/04/27 04:54:50;;;;;;;4.55;2.50;;;;;;;;;;5070519;28;20217;-82
2021/04/27 04:57:17;;;;;;;8.18;3.20;;;;;;;;;;5071632;28;20196;-82
2021/04/27 04:59:44;;;;;;;6.70;3.00;;;;;;;;;;5072105;28;20198;-82
2021/04/27 05:02:11;;;;;;;4.93;3.05;;;;;;;;;;5067079;28;20188;-80
2021/04/27 05:04:38;;;;;;;3.53;2.75;;;;;;;;;;5063074;28;20242;-81
2021/04/27 05:07:08;;;;;;;4.38;3.00;;;;;;;;;;5056904;28;20649;-81
2021/04/27 05:09:37;;;;;;;4.40;2.70;;;;;;;;;;5068900;28;20287;-81
2021/04/27 05:12:05;;;;;;;3.65;3.35;;;;;;;;;;5069420;28;20232;-83
2021/04/27 05:14:39;;;;;;;3.13;2.33;;;;;;;;;;5037471;28;20207;-83
2021/04/27 05:17:07;;;;;;;5.90;2.97;;;;;;;;;;5043670;28;20204;-87
2021/04/27 05:19:34;;;;;;;4.18;2.78;;;;;;;;;;5060872;28;20199;-85
2021/04/27 05:22:02;;;;;;;2.90;2.40;;;;;;;;;;5053562;28;20288;-83
2021/04/27 05:24:28;;;;;;;4.18;2.72;;;;;;;;;;5053348;28;20235;-83
2021/04/27 05:26:55;;;;;;;5.97;3.00;;;;;;;;;;5055617;28;20288;-83
2021/04/27 05:29:24;;;;;;;4.13;2.80;;;;;;;;;;5058293;28;20611;-84
2021/04/27 05:31:52;;;;;;;6.03;3.10;;;;;;;;;;5070196;28;20201;-81
2021/04/27 05:34:19;;;;;;;4.50;2.83;;;;;;;;;;5071081;28;20502;-81
2021/04/27 05:36:46;;;;;;;4.00;3.13;;;;;;;;;;5073959;28;20479;-82
2021/04/27 05:39:13;;;;;;;4.50;2.87;;;;;;;;;;5074517;28;20779;-83
2021/04/27 05:41:40;;;;;;;4.33;2.90;;;;;;;;;;5070800;28;20437;-82
2021/04/27 05:44:07;;;;;;;3.23;2.40;;;;;;;;;;5036164;28;20494;-81
2021/04/27 05:46:36;;;;;;;3.10;2.67;;;;;;;;;;5053819;28;20447;-81
2021/04/27 05:49:03;;;;;;;4.63;2.70;;;;;;;;;;5037021;28;20447;-82
2021/04/27 05:51:30;;;;;;;2.87;2.53;;;;;;;;;;5056603;28;20437;-80
2021/04/27 05:53:57;;;;;;;5.07;2.60;;;;;;;;;;5050773;28;20467;-81
2021/04/27 05:56:24;;;;;;;3.87;2.50;;;;;;;;;;5051016;28;20947;-84
2021/04/27 05:58:51;;;;;;;4.63;2.80;;;;;;;;;;5051372;28;20449;-83
2021/04/27 06:01:17;;;;;;;3.27;2.60;;;;;;;;;;5054269;28;20830;-83
2021/04/27 06:03:45;;;;;;;3.30;2.53;;;;;;;;;;5071011;28;20829;-84
2021/04/27 06:06:12;;;;;;;4.40;2.50;;;;;;;;;;5073579;28;20429;-85
2021/04/27 06:08:51;;;;;;;5.13;3.03;;;;;;;;;;5073246;28;20447;-83
2021/04/27 06:11:18;;;;;;;2.90;2.40;;;;;;;;;;5069144;28;20436;-87
2021/04/27 06:13:45;;;;;;;4.67;2.77;;;;;;;;;;5056466;28;20456;-87
2021/04/27 06:16:14;;;;;;;2.60;2.40;;;;;;;;;;5065952;28;20448;-85
2021/04/27 06:18:41;;;;;;;3.93;2.70;;;;;;;;;;5070233;28;20538;-83
2021/04/27 06:21:09;;;;;;;4.03;2.67;;;;;;;;;;5070552;28;20440;-80
2021/04/27 06:23:35;;;;;;;5.37;2.73;;;;;;;;;;5058447;28;20515;-81
2021/04/27 06:26:02;;;;;;;5.63;2.60;;;;;;;;;;5075604;28;20471;-82
2021/04/27 06:28:29;;;;;;;3.90;2.80;;;;;;;;;;5049939;28;20438;-83
2021/04/27 06:30:59;;;;;;;7.47;3.07;;;;;;;;;;5060951;28;20441;-86
2021/04/27 06:33:25;;;;;;;3.80;3.07;;;;;;;;;;5073926;28;20525;-87
2021/04/27 06:35:52;;;;;;;6.77;2.80;;;;;;;;;;5074468;28;20436;-85
2021/04/27 06:38:20;;;;;;;3.47;2.70;;;;;;;;;;5075139;28;20440;-86
2021/04/27 06:44:07;;;;;;;2.93;2.73;;;;;;;;;;5016148;28;20488;-85
2021/04/27 06:46:34;;;;;;;5.33;2.93;;;;;;;;;;5076994;28;20447;-85
2021/04/27 06:49:01;;;;;;;3.30;2.10;;;;;;;;;;5076948;28;20442;-89
2021/04/27 06:51:29;;;;;;;2.93;2.63;;;;;;;;;;5063951;28;20523;-87
2021/04/27 06:53:57;;;;;;;2.80;2.50;;;;;;;;;;5062171;28;20456;-88
2021/04/27 06:56:24;;;;;;;6.13;2.70;;;;;;;;;;5073484;28;20972;-87
2021/04/27 06:58:50;;;;;;;5.10;2.70;;;;;;;;;;5074565;28;20446;-88
2021/04/27 07:01:17;;;;;;;4.17;2.67;;;;;;;;;;5074934;28;20478;-87
2021/04/27 07:03:49;;;;;;;3.27;2.30;;;;;;;;;;5075103;28;20487;-86
2021/04/27 07:06:19;;;;;;;6.67;2.80;;;;;;;;;;5076685;28;20445;-86
2021/04/27 07:08:49;;;;;;;3.50;2.63;;;;;;;;;;5076631;28;20939;-88
2021/04/27 07:11:17;;;;;;;2.60;2.40;;;;;;;;;;5075616;28;20591;-86
2021/04/27 07:13:43;;;;;;;6.30;2.93;;;;;;;;;;5059706;28;20451;-85
2021/04/27 07:16:10;;;;;;;2.80;2.50;;;;;;;;;;5065071;28;20876;-85
2021/04/27 07:18:37;;;;;;;3.50;2.63;;;;;;;;;;5073886;28;20532;-86
2021/04/27 07:21:04;;;;;;;3.07;2.77;;;;;;;;;;5074015;28;21422;-85
2021/04/27 07:23:31;;;;;;;3.30;2.67;;;;;;;;;;5056862;28;20483;-84
2021/04/27 07:25:58;;;;;;;3.00;2.20;;;;;;;;;;5069134;28;20475;-87
2021/04/27 07:28:26;;;;;;;2.97;2.77;;;;;;;;;;5076199;28;20436;-87
2021/04/27 07:30:53;;;;;;;5.23;2.50;;;;;;;;;;5073587;28;20432;-87
2021/04/27 07:33:19;;;;;;;3.90;2.47;;;;;;;;;;5075365;28;20498;-86
2021/04/27 07:35:46;;;;;;;2.90;2.40;;;;;;;;;;5063577;28;20449;-85
2021/04/27 07:38:13;;;;;;;4.43;2.80;;;;;;;;;;5057763;28;20445;-83
2021/04/27 07:40:40;;;;;;;3.30;2.40;;;;;;;;;;5053379;28;20445;-83
2021/04/27 07:43:07;;;;;;;6.20;2.50;;;;;;;;;;5053534;28;20522;-85
2021/04/27 07:45:35;;;;;;;2.97;2.43;;;;;;;;;;5053764;28;20492;-86
2021/04/27 07:48:03;;;;;;;4.00;2.23;;;;;;;;;;5068780;28;20447;-86
2021/04/27 07:50:30;;;;;;;3.20;2.73;;;;;;;;;;5078178;28;20435;-86
2021/04/27 07:52:57;;;;;;;6.27;3.30;;;;;;;;;;5076774;28;20444;-85
2021/04/27 07:55:24;;;;;;;3.37;2.50;;;;;;;;;;5076347;28;20850;-85
2021/04/27 07:57:51;;;;;;;3.13;2.80;;;;;;;;;;5050316;28;20441;-84
2021/04/27 08:00:19;;;;;;;3.83;2.63;;;;;;;;;;5059209;28;20425;-84
2021/04/27 08:02:50;;;;;;;4.10;2.57;;;;;;;;;;5071325;28;20527;-85
2021/04/27 08:05:19;;;;;;;4.13;2.80;;;;;;;;;;5070129;28;20471;-85
2021/04/27 08:07:48;;;;;;;3.73;2.93;;;;;;;;;;5063718;28;20463;-88
2021/04/27 08:10:15;;;;;;;4.87;2.70;;;;;;;;;;5073981;28;20456;-86
2021/04/27 08:12:43;;;;;;;3.00;2.50;;;;;;;;;;5075300;28;20991;-88
2021/04/27 08:15:10;;;;;;;7.10;3.10;;;;;;;;;;5071711;28;20477;-87
2021/04/27 08:17:39;;;;;;;3.53;2.40;;;;;;;;;;5070540;28;20535;-86
2021/04/27 08:20:09;;;;;;;4.07;2.87;;;;;;;;;;5069445;28;20447;-84
2021/04/27 08:22:35;;;;;;;6.07;2.97;;;;;;;;;;5058469;28;20434;-88
2021/04/27 08:25:06;;;;;;;3.30;2.63;;;;;;;;;;5068936;28;21008;-89
2021/04/27 08:27:33;;;;;;;3.17;2.60;;;;;;;;;;5072783;28;20445;-88
2021/04/27 08:30:00;;;;;;;3.77;2.80;;;;;;;;;;5069187;28;20520;-83
2021/04/27 08:32:27;;;;;;;3.57;2.93;;;;;;;;;;5054787;28;20449;-86
2021/04/27 08:34:54;;;;;;;3.77;2.60;;;;;;;;;;5074838;28;20468;-86
2021/04/27 08:37:21;;;;;;;4.67;2.97;;;;;;;;;;5057375;28;20437;-84
2021/04/27 08:39:55;;;;;;;3.53;3.00;;;;;;;;;;5074091;28;20447;-87
2021/04/27 08:42:24;;;;;;;3.90;3.00;;;;;;;;;;5071705;28;20437;-88
2021/04/27 08:44:51;;;;;;;6.03;2.90;;;;;;;;;;5059305;28;20978;-84
2021/04/27 08:47:18;;;;;;;3.00;2.47;;;;;;;;;;5054537;28;20449;-86
2021/04/27 08:49:46;;;;;;;2.70;2.50;;;;;;;;;;5052505;28;20451;-87
2021/04/27 08:52:13;;;;;;;2.90;2.70;;;;;;;;;;5052305;28;20452;-87
2021/04/27 08:54:41;;;;;;;3.17;2.73;;;;;;;;;;5052333;28;20912;-85
2021/04/27 08:57:08;;;;;;;5.20;3.30;;;;;;;;;;5066584;28;20551;-90
2021/04/27 08:59:35;;;;;;;4.07;2.70;;;;;;;;;;5067737;28;20515;-87
2021/04/27 09:02:02;;;;;;;3.50;2.70;;;;;;;;;;5057904;28;20445;-86
2021/04/27 09:04:38;;;;;;;3.63;2.33;;;;;;;;;;5052081;28;20493;-85
2021/04/27 09:07:05;;;;;;;3.07;2.57;;;;;;;;;;5051243;28;20463;-88
2021/04/27 09:09:40;;;;;;;3.13;2.47;;;;;;;;;;5071325;28;20444;-85
2021/04/27 09:12:08;;;;;;;3.97;3.00;;;;;;;;;;5063083;28;20459;-85
2021/04/27 09:14:36;;;;;;;4.43;3.30;;;;;;;;;;5052134;28;20465;-82
2021/04/27 09:17:03;;;;;;;5.50;3.03;;;;;;;;;;5035068;28;20445;-84
2021/04/27 09:19:33;;;;;;;6.77;3.70;;;;;;;;;;5034857;28;20472;-82
2021/04/27 09:22:01;;;;;;;4.30;3.40;;;;;;;;;;5067723;28;20448;-83
2021/04/27 09:24:28;;;;;;;4.03;2.67;;;;;;;;;;5056952;28;20480;-85
2021/04/27 09:27:00;;;;;;;3.07;2.77;;;;;;;;;;5065780;28;20448;-87
2021/04/27 09:29:30;;;;;;;3.37;2.80;;;;;;;;;;5072971;28;20440;-85
2021/04/27 09:32:02;;;;;;;3.80;3.03;;;;;;;;;;5071540;28;20436;-87
2021/04/27 09:34:30;;;;;;;4.87;3.03;;;;;;;;;;5071763;28;21017;-88
2021/04/27 09:36:58;;;;;;;3.53;3.00;;;;;;;;;;5073134;28;20934;-87
2021/04/27 09:39:32;;;;;;;3.33;3.00;;;;;;;;;;5056281;28;20436;-88
2021/04/27 09:42:00;;;;;;;4.87;2.97;;;;;;;;;;5073806;28;20471;-88
2021/04/27 09:44:32;;;;;;;3.40;2.87;;;;;;;;;;5071479;28;20995;-86
2021/04/27 09:47:10;;;;;;;5.20;2.70;;;;;;;;;;5039249;28;20428;-86
2021/04/27 09:49:37;;;;;;;3.73;2.70;;;;;;;;;;5066106;28;20440;-86
2021/04/27 09:52:09;;;;;;;3.20;2.90;;;;;;;;;;5053485;28;20445;-88
2021/04/27 09:54:36;;;;;;;3.67;3.10;;;;;;;;;;5051298;28;20465;-86
2021/04/27 09:57:03;;;;;;;3.40;3.07;;;;;;;;;;5053087;28;20445;-87
2021/04/27 09:59:31;;;;;;;3.47;3.10;;;;;;;;;;5073678;28;20486;-86
2021/04/27 10:02:00;;;;;;;5.03;2.80;;;;;;;;;;5068987;28;20915;-87
2021/04/27 10:04:27;;;;;;;3.47;3.10;;;;;;;;;;5062907;28;20496;-87
2021/04/27 10:06:54;;;;;;;3.50;3.20;;;;;;;;;;5035738;28;20482;-85
2021/04/27 10:09:22;;;;;;;3.30;2.90;;;;;;;;;;5057088;28;20432;-85
2021/04/27 10:11:49;;;;;;;5.00;3.40;;;;;;;;;;5063068;28;20467;-86
2021/04/27 10:14:16;;;;;;;4.07;3.70;;;;;;;;;;5067297;28;20553;-84
2021/04/27 10:16:44;;;;;;;3.93;3.30;;;;;;;;;;5051981;28;20437;-85
2021/04/27 10:19:15;;;;;;;4.63;3.63;;;;;;;;;;5033922;28;20552;-86
2021/04/27 10:21:51;;;;;;;3.97;2.87;;;;;;;;;;5069971;28;20460;-87
2021/04/27 10:33:15;;;;;;;4.80;3.70;;;;;;;;;;5010158;28;20435;-89
2021/04/27 10:35:43;;;;;;;4.13;3.37;;;;;;;;;;5011928;28;20466;-86
2021/04/27 10:38:10;;;;;;;4.40;3.20;;;;;;;;;;5031024;28;20541;-89
2021/04/27 10:40:46;;;;;;;4.53;3.20;;;;;;;;;;5031439;28;20442;-87
2021/04/27 10:43:28;;;;;;;6.70;3.60;;;;;;;;;;5013662;28;20529;-86
2021/04/27 10:45:55;;;;;;;3.43;3.13;;;;;;;;;;5012758;28;20782;-86
2021/04/27 10:48:33;;;;;;;4.50;3.70;;;;;;;;;;5013329;28;20450;-85
2021/04/27 10:51:21;;;;;;;4.10;3.37;;;;;;;;;;5010535;28;20533;-85
2021/04/27 10:54:06;;;;;;;5.27;3.60;;;;;;;;;;5022199;22;20995;-82
2021/04/27 10:56:37;;;;;;;4.43;3.50;;;;;;;;;;5065020;28;20460;-87
2021/04/27 10:59:07;;;;;;;3.37;3.07;;;;;;;;;;5048098;28;20440;-86
2021/04/27 11:01:34;;;;;;;3.97;3.47;;;;;;;;;;5066984;28;20513;-86
2021/04/27 11:04:02;;;;;;;3.90;3.17;;;;;;;;;;5067033;28;20502;-83
2021/04/27 11:06:32;;;;;;;3.70;3.23;;;;;;;;;;5063977;28;20478;-83
2021/04/27 11:09:11;;;;;;;3.53;3.23;;;;;;;;;;5063219;28;20495;-86
2021/04/27 11:11:39;;;;;;;4.00;3.10;;;;;;;;;;5071158;28;20455;-83
2021/04/27 11:14:21;;;;;;;4.13;2.90;;;;;;;;;;5070900;28;20459;-89
2021/04/27 11:17:04;;;;;;;6.47;3.77;;;;;;;;;;5055992;28;20498;-88
2021/04/27 11:19:41;;;;;;;4.97;3.30;;;;;;;;;;5072153;28;20470;-83
2021/04/27 11:22:21;;;;;;;4.77;4.37;;;;;;;;;;5055186;28;20496;-88
2021/04/27 11:27:31;;;;;;;7.03;3.57;;;;;;;;;;5055289;28;20536;-84
2021/04/27 11:30:11;;;;;;;3.73;3.33;;;;;;;;;;5065193;28;20498;-85
2021/04/27 11:32:46;;;;;;;5.73;3.27;;;;;;;;;;5067421;28;20435;-87
2021/04/27 11:38:21;;;;;;;5.63;3.73;;;;;;;;;;4992470;28;20930;-84
2021/04/27 11:40:51;;;;;;;6.57;4.20;;;;;;;;;;5067074;28;20500;-81
2021/04/27 11:43:18;;;;;;;3.63;3.33;;;;;;;;;;5071599;28;20440;-82
2021/04/27 11:45:46;;;;;;;4.20;3.80;;;;;;;;;;5072133;28;20490;-81
2021/04/27 11:48:13;;;;;;;4.40;3.50;;;;;;;;;;5071903;28;20502;-81
2021/04/27 11:50:43;;;;;;;6.17;3.30;;;;;;;;;;5053154;28;20855;-88
2021/04/27 11:53:11;;;;;;;4.00;3.17;;;;;;;;;;5067257;28;20805;-87
2021/04/27 11:55:49;;;;;;;3.87;3.20;;;;;;;;;;5100841;22;20491;-86
2021/04/27 11:58:36;;;;;;;3.10;2.80;;;;;;;;;;5069781;28;20490;-87
2021/04/27 12:01:20;;;;;;;;;;;;;;;;;;;;;
2021/04/27 12:03:47;;;;;;;4.27;3.17;;;;;;;;;;5045523;28;20480;-83
2021/04/27 12:06:16;;;;;;;5.10;3.30;;;;;;;;;;5068034;28;20437;-84
2021/04/27 12:09:11;;;;;;;6.20;3.83;;;;;;;;;;5070525;28;21029;-87
2021/04/27 12:12:36;;;;;;;5.40;3.67;;;;;;;;;;5072465;28;20424;-88
2021/04/27 12:15:25;;;;;;;3.70;3.40;;;;;;;;;;5203505;22;20488;-87
2021/04/27 12:18:23;;;;;;;;;;;;;;;;;;;;;
2021/04/27 12:24:25;;;;;;;3.80;3.33;;;;;;;;;;4946034;28;20471;-89
2021/04/27 12:27:14;;;;;;;3.60;3.30;;;;;;;;;;5046129;28;20918;-89
2021/04/27 12:29:45;;;;;;;5.60;3.87;;;;;;;;;;5011688;28;20530;-86
2021/04/27 12:32:13;;;;;;;3.70;3.37;;;;;;;;;;5031583;28;20442;-87
2021/04/27 12:37:38;;;;;;;3.80;3.40;;;;;;;;;;5037110;28;20813;-88
2021/04/27 12:46:33;;;;;;;4.90;4.10;;;;;;;;;;4983032;28;20487;-88
2021/04/27 12:52:15;;;;;;;4.07;3.10;;;;;;;;;;5022471;28;20381;-86
2021/04/27 13:45:46;;;;;;;3.77;3.37;;;;;;;;;;6043830;22;20466;-86
2021/04/27 13:48:16;;;;;;;3.63;3.30;;;;;;;;;;5026998;28;20609;-84
2021/04/27 13:50:44;;;;;;;3.40;3.10;;;;;;;;;;5028266;28;21003;-85
2021/04/27 13:53:13;;;;;;;4.77;3.57;;;;;;;;;;5036388;28;20464;-84
2021/04/27 13:55:40;;;;;;;3.40;3.10;;;;;;;;;;5051241;28;20461;-84
2021/04/27 13:58:10;;;;;;;3.73;3.43;;;;;;;;;;5028600;28;20450;-85
2021/04/27 14:00:39;;;;;;;3.93;3.37;;;;;;;;;;5026010;28;20443;-82
2021/04/27 14:03:06;;;;;;;6.10;4.20;;;;;;;;;;5025692;28;20477;-84
2021/04/27 14:05:33;;;;;;;4.50;3.37;;;;;;;;;;5015322;28;20491;-84
2021/04/27 14:08:00;;;;;;;6.20;3.83;;;;;;;;;;5011687;28;20442;-87
2021/04/27 14:10:27;;;;;;;7.20;3.97;;;;;;;;;;5021342;28;20458;-87
2021/04/27 14:12:56;;;;;;;3.83;3.43;;;;;;;;;;5027666;28;20423;-86
2021/04/27 14:15:24;;;;;;;7.40;3.80;;;;;;;;;;5029939;28;20872;-84
2021/04/27 14:17:56;;;;;;;4.03;3.50;;;;;;;;;;5032129;28;20446;-84
2021/04/27 14:20:35;;;;;;;5.60;3.80;;;;;;;;;;5027163;28;20521;-85
2021/04/27 14:23:03;;;;;;;5.00;3.33;;;;;;;;;;5023503;28;20441;-85
2021/04/27 14:25:30;;;;;;;4.07;3.67;;;;;;;;;;5029606;28;20485;-85
2021/04/27 14:28:02;;;;;;;4.40;3.37;;;;;;;;;;5030907;28;20834;-85
2021/04/27 14:30:29;;;;;;;3.77;3.40;;;;;;;;;;5029658;28;20453;-84
2021/04/27 14:32:57;;;;;;;4.27;3.87;;;;;;;;;;5029933;28;20815;-85
2021/04/27 14:35:24;;;;;;;3.80;3.43;;;;;;;;;;5046592;28;21920;-84
2021/04/27 14:37:55;;;;;;;5.27;3.13;;;;;;;;;;5031883;28;20446;-85
2021/04/27 14:40:29;;;;;;;4.27;3.23;;;;;;;;;;5052972;28;20841;-85
2021/04/27 14:42:56;;;;;;;4.57;4.17;;;;;;;;;;5040769;28;20473;-87
2021/04/27 14:45:24;;;;;;;3.63;3.33;;;;;;;;;;5707948;22;20506;-84
2021/04/27 14:48:15;;;;;;;5.00;3.77;;;;;;;;;;5013638;28;20467;-84
2021/04/27 14:50:42;;;;;;;5.20;3.77;;;;;;;;;;5013238;28;20541;-82
2021/04/27 14:53:11;;;;;;;3.87;3.40;;;;;;;;;;5015723;28;20442;-88
2021/04/27 14:55:38;;;;;;;4.93;3.77;;;;;;;;;;5003080;28;21018;-84
2021/04/27 14:58:25;;;;;;;4.63;3.80;;;;;;;;;;5004850;28;20441;-84
2021/04/27 15:00:52;;;;;;;4.00;3.63;;;;;;;;;;5011713;28;20443;-83
2021/04/27 15:03:19;;;;;;;4.10;3.30;;;;;;;;;;5025985;28;20442;-82
2021/04/27 15:05:46;;;;;;;4.87;4.20;;;;;;;;;;5034392;28;20490;-80
2021/04/27 15:08:14;;;;;;;4.40;4.00;;;;;;;;;;5034678;28;20491;-80
2021/04/27 15:10:41;;;;;;;4.03;3.63;;;;;;;;;;5030705;28;20433;-84
2021/04/27 15:13:08;;;;;;;4.73;3.57;;;;;;;;;;5036518;28;20454;-87
2021/04/27 15:15:35;;;;;;;4.50;4.10;;;;;;;;;;5036397;28;20465;-84
2021/04/27 15:18:02;;;;;;;6.20;3.87;;;;;;;;;;5036001;28;20446;-81
2021/04/27 15:20:30;;;;;;;3.77;3.47;;;;;;;;;;5024884;28;20844;-81
2021/04/27 15:22:56;;;;;;;4.20;3.80;;;;;;;;;;5010282;28;20466;-79
2021/04/27 15:25:25;;;;;;;5.97;3.60;;;;;;;;;;5022350;28;20539;-81
2021/04/27 15:27:55;;;;;;;4.63;3.53;;;;;;;;;;5034004;28;20438;-81
2021/04/27 15:30:22;;;;;;;3.67;3.30;;;;;;;;;;5016288;28;20453;-83
2021/04/27 15:32:49;;;;;;;3.60;3.30;;;;;;;;;;5029590;28;20533;-80
2021/04/27 15:35:17;;;;;;;4.13;3.73;;;;;;;;;;5024027;28;20454;-81
2021/04/27 15:37:45;;;;;;;4.37;3.77;;;;;;;;;;5036001;28;20496;-81
2021/04/27 15:40:12;;;;;;;4.50;3.63;;;;;;;;;;5036222;28;20449;-81
2021/04/27 15:42:40;;;;;;;3.43;3.10;;;;;;;;;;5031672;28;20421;-82
2021/04/27 15:45:08;;;;;;;3.50;3.20;;;;;;;;;;5019259;28;20470;-78
2021/04/27 15:47:35;;;;;;;3.67;3.30;;;;;;;;;;5029171;28;20462;-80
2021/04/27 15:50:02;;;;;;;4.07;3.50;;;;;;;;;;5038243;28;20434;-83
2021/04/27 15:52:30;;;;;;;4.47;3.63;;;;;;;;;;5053310;28;20456;-77
2021/04/27 15:54:57;;;;;;;3.40;3.10;;;;;;;;;;5049537;28;20460;-83
2021/04/27 15:57:23;;;;;;;3.93;3.40;;;;;;;;;;5034748;28;20996;-82
2021/04/27 15:59:51;;;;;;;4.07;3.60;;;;;;;;;;5026846;28;20438;-82
2021/04/27 16:02:18;;;;;;;3.80;3.47;;;;;;;;;;5028466;28;20417;-81
2021/04/27 16:04:45;;;;;;;3.60;3.23;;;;;;;;;;5036097;28;20495;-82
2021/04/27 16:07:12;;;;;;;3.87;3.50;;;;;;;;;;5053161;28;20418;-84
2021/04/27 16:09:39;;;;;;;5.53;3.77;;;;;;;;;;5048957;28;20442;-81
2021/04/27 16:12:06;;;;;;;5.67;3.67;;;;;;;;;;5034646;28;20442;-81
2021/04/27 16:14:37;;;;;;;7.40;3.70;;;;;;;;;;5035423;28;20506;-81
2021/04/27 16:17:05;;;;;;;7.30;4.10;;;;;;;;;;5041518;28;20886;-83
2021/04/27 16:19:32;;;;;;;4.23;3.50;;;;;;;;;;5054701;28;20789;-81
2021/04/27 16:21:59;;;;;;;3.73;3.33;;;;;;;;;;5026661;28;20449;-82